Estações Meteorológicas Convencionais MB

Mostardas
Data Hora VISIB (KM) Cobertura(OITAVOS) DD Vento(º) Intensidade (NÓS) TEMP DO AR (º) Temp do Ponto de Orvalho(ºC) Pressão (hPa) TEMP MAX (ºC) TEMP MIN (ºC)
29/05/2020 12:00 4/10 0 10 5 15.00 1019.50
27/05/2020 12:00 4/10 2 240 10 13.00 1020.50
27/05/2020 00:00 0,2/0,5 260 10 15.00 1016.50
26/05/2020 18:00 4/10 2 260 22 15.00 1014.50
26/05/2020 12:00 4/10 8 260 20 14.00 1015.50
25/05/2020 00:00 0,2/0,5 210 18 18.00 1009.50
23/05/2020 18:00 20/50 0 10 16 1011.50
23/05/2020 12:00 2/4 8 60 20 17.00 1009.50
22/05/2020 18:00 4/10 7 170 6 20.50 1008.00
20/05/2020 00:00 2/4 0 70 12 19.00 1019.50
19/05/2020 18:00 20/50 0 60 13 25.00 1020.00
19/05/2020 12:00 20/50 1 50 20 21.00 1023.60
17/05/2020 18:00 4/10 2 280 10 26.00 1016.50
15/05/2020 18:00 4/10 5 270 8 147.00 1019.50
15/05/2020 12:00 4/10 1 280 8 16.00 1022.00
15/05/2020 00:00 0,2/0,5 200 10 15.00 1023.50
14/05/2020 18:00 4/10 5 200 14 19.00 1012.50
14/05/2020 12:00 4/10 2 200 16 16.00 1021.50
11/05/2020 00:00 0,2/0,5 20 10 19.00 1014.50
10/05/2020 18:00 4/10 6 10 14 23.00 1013.50
10/05/2020 12:00 4/10 1 10 10 19.00 1014.30
09/05/2020 12:00 4/10 0 10 5 17.00 1017.50
06/05/2020 00:00 0,2/0,5 270 18 20.00 1011.50
05/05/2020 18:00 4/10 8 300 14 20.00 1008.50
05/05/2020 12:00 4/10 8 350 9 18.00 1006.90
03/05/2020 00:00 10/20 0 210 8 18.80 1022.50
02/05/2020 18:00 20/50 7 180 14 18.50 1020.20
02/05/2020 12:00 10/20 5 190 14 19.00 1020.50
01/05/2020 00:00 2/4 0 220 11 17.50 1019.80
30/04/2020 18:00 20/50 0 220 20 22.00 1017.30
29/04/2020 18:00 20/50 2 230 14 24.50 1015.10
27/04/2020 00:00 2/4 8 150 18 21.00 1027.30
26/04/2020 18:00 4/10 7 150 11 24.00 1022.50
26/04/2020 12:00 4/10 8 190 8 23.00 1019.10
25/04/2020 18:00 10/20 4 10 8 25.00 1016.50
25/04/2020 12:00 10/20 3 10 8 23.00 1012.60
23/04/2020 00:00 10/20 0 100 10 21.00 1018.50
22/04/2020 18:00 20/50 2 140 6 24.00 1017.70
22/04/2020 12:00 20/50 0 230 4 21.00 1019.50
21/04/2020 00:00 10/20 0 60 8 20.00 1018.40
20/04/2020 12:00 10/20 0 50 8 23.00 1021.50
19/04/2020 00:00 0,2/0,5 80 10 19.00 1025.50
18/04/2020 18:00 10/20 2 100 6 23.00 1025.50
18/04/2020 12:00 10/20 1 100 6 21.00 1023.80
18/04/2020 00:00 0,2 160 6 19.00 1025.50
17/04/2020 18:00 10/20 1 230 8 23.00 1025.50
17/04/2020 12:00 10/20 7 190 8 20.00 1021.00
15/04/2020 00:00 0,2 130 20 17.00 1004.60
14/04/2020 18:00 10/20 8 130 22 20.00 1008.00
14/04/2020 00:00 0,2/0,5 70 18 21.00 1006.10
13/04/2020 18:00 10/20 5 90 14 24.00 1008.40
13/04/2020 12:00 10/20 8 100 17 23.00 1012.60
11/04/2020 00:00 0,2/0,5 4 200 9 19.00 1015.20
10/04/2020 18:00 10/20 3 220 10 22.00 1013.70
10/04/2020 12:00 10/20 3 210 10 22.00 1015.20
07/04/2020 12:00 10/20 3 210 22 18.00 1016.70
07/04/2020 00:00 10/20 4 190 24 21.00 1017.30
09/02/2020 18:00 4/10 8 210 10 23.00 20.10 1012.00
30/01/2020 00:00 10/20 40 10 24.00 22.90 1010.50 25.80
16/12/2019 12:00 10/20 8 120 14 22.00 1007.90
12/12/2019 12:00 10/20 8 20 10 1010.40
08/12/2019 00:00 10/20 330 8 19.00 1015.70
29/11/2019 06:00 4/10 24 7 1012.10
29/11/2019 12:00 20/50 22.00 17.10 1017.60 0.00
24/11/2019 00:00 10/20 160 14 22.00 1021.30
23/11/2019 12:00 6 190 20 23.00 1018.50
22/11/2019 18:00 10/20 7 220 10 22.50 1009.50
22/11/2019 12:00 10/20 5 240 2 22.00 1010.80
22/11/2019 00:00 10/20 280 10 22.00 11.50 1012.00
21/11/2019 18:00 20/50 2 280 12 26.00 13.00 1013.50
21/11/2019 12:00 10/20 7 270 8 21.00 15.90 1016.40
21/11/2019 00:00 10/20 270 10 22.50 1016.00
20/11/2019 12:00 20/50 2 260 20 23.00 1017.70
20/11/2019 00:00 10/20 270 10 22.00 1017.60
19/11/2019 18:00 20/50 2 290 10 24.50 1016.80
19/11/2019 12:00 20/50 1 270 10 22.50 1018.30
18/11/2019 00:00 10/20 280 8 22.00 15.10 1015.60
17/11/2019 12:00 20/50 2 30 5 22.00 15.00 1015.50
17/11/2019 00:00 10/20 32 8 22.00 13.80 1014.30
16/11/2019 18:00 20/50 1 35 8 24.50 12.60 1013.10
16/11/2019 12:00 20/50 2 2 6 23.00 13.40 1013.90 0.00
16/11/2019 00:00 10/20 80 14 20.50 1013.70
15/11/2019 18:00 20/50 1 70 12 24.50 1013.00
15/11/2019 12:00 20/50 3 70 10 22.00 1012.80
15/11/2019 00:00 10/20 30 8 21.00 1010.50
14/11/2019 18:00 20/50 1 50 10 24.00 1008.00
14/11/2019 12:00 20/50 7 350 4 22.00 1010.40
13/11/2019 18:00 10/20 8 70 22 22.00 10.20 1010.70
13/11/2019 12:00 20/50 6 70 10 21.00 1013.10
12/11/2019 12:00 20/50 2 100 20 21.00 1020.60
11/11/2019 12:00 20/50 3 15 14 24.10 21.00 1024.60
11/11/2019 00:00 10/20 150 14 21.00 1021.00
10/11/2019 18:00 10/20 6 100 14 22.00 1018.90
10/11/2019 00:00 10/20 130 12 21.00 1015.50
09/11/2019 18:00 20/50 1 100 14 24.50 1013.50
09/11/2019 12:00 20/50 3 120 12 22.00 1018.90
09/11/2019 00:00 10/20 120 10 21.00 15.50 1016.00
08/11/2019 18:00 20/50 3 150 16 23.50 15.00 1015.50
08/11/2019 12:00 2/4 8 160 2 20.00 16.70 1017.20
06/11/2019 18:00 20/50 1 30 10 22.50 18.70 1019.20